Time;durP1;ratioP1;P1;durP2;ratioP2;P2;SDS_P1;SDS_P2;PMS_P1;PMS_P2;Temp;Humidity;BMP_temperature;BMP_pressure;BME280_temperature;BME280_humidity;BME280_pressure;Samples;Min_cycle;Max_cycle;Signal;HPM_P1;HPM_P2
2023/12/20 00:01:03;;;;;;;2.20;2.10;;;7.10;99.90;;;;;;5054445;28;20783;-80
2023/12/20 00:03:30;;;;;;;2.30;2.07;;;7.10;99.90;;;;;;5055536;28;20437;-80
2023/12/20 00:05:57;;;;;;;2.80;1.87;;;7.10;99.90;;;;;;5039117;28;20440;-80
2023/12/20 00:08:25;;;;;;;2.03;1.93;;;7.10;99.90;;;;;;5035229;28;20438;-80
2023/12/20 00:10:51;;;;;;;2.40;2.30;;;7.10;99.90;;;;;;5033933;28;20467;-81
2023/12/20 00:13:18;;;;;;;2.10;2.00;;;7.10;99.90;;;;;;5034793;28;20521;-80
2023/12/20 00:15:45;;;;;;;2.10;2.00;;;7.10;99.90;;;;;;5035572;28;20446;-80
2023/12/20 00:18:11;;;;;;;2.20;2.10;;;7.10;99.90;;;;;;5035905;28;20448;-80
2023/12/20 00:20:38;;;;;;;1.77;1.77;;;7.20;99.90;;;;;;5036068;28;20469;-80
2023/12/20 00:23:05;;;;;;;1.87;1.77;;;7.20;99.90;;;;;;5035121;28;20489;-82
2023/12/20 00:25:32;;;;;;;1.90;1.80;;;7.20;99.90;;;;;;5035161;28;20434;-79
2023/12/20 00:27:59;;;;;;;2.30;2.20;;;7.20;99.90;;;;;;5035686;28;20451;-82
2023/12/20 00:30:26;;;;;;;1.90;1.80;;;7.20;99.90;;;;;;5034240;28;20462;-83
2023/12/20 00:32:52;;;;;;;2.10;2.00;;;7.20;99.90;;;;;;5035809;28;20799;-81
2023/12/20 00:35:19;;;;;;;2.00;1.90;;;7.20;99.90;;;;;;5037299;28;20442;-82
2023/12/20 00:37:46;;;;;;;2.10;2.00;;;7.20;99.90;;;;;;5037105;28;20801;-81
2023/12/20 00:40:13;;;;;;;1.97;1.87;;;7.20;99.90;;;;;;5037885;28;20472;-82
2023/12/20 00:42:41;;;;;;;2.60;2.40;;;7.20;99.90;;;;;;5037263;28;21002;-82
2023/12/20 00:45:08;;;;;;;1.63;1.53;;;7.20;99.90;;;;;;5037536;28;20450;-82
2023/12/20 00:47:35;;;;;;;1.90;1.80;;;7.20;99.90;;;;;;5038308;28;20435;-81
2023/12/20 00:50:01;;;;;;;1.70;1.63;;;7.20;99.90;;;;;;5038249;28;20459;-81
2023/12/20 00:52:28;;;;;;;1.90;1.80;;;7.20;99.90;;;;;;5039082;28;20443;-82
2023/12/20 00:54:55;;;;;;;1.70;1.63;;;7.20;99.90;;;;;;5038475;28;20773;-81
2023/12/20 00:57:21;;;;;;;1.70;1.60;;;7.20;99.90;;;;;;5038150;28;20440;-82
2023/12/20 00:59:49;;;;;;;1.40;1.30;;;7.20;99.90;;;;;;5038285;28;20457;-82
2023/12/20 01:02:34;;;;;;;1.87;1.77;;;7.10;99.90;;;;;;5051193;28;20473;-82
2023/12/20 01:05:34;;;;;;;1.90;1.80;;;7.10;99.90;;;;;;5054588;28;20466;-82
2023/12/20 01:08:35;;;;;;;1.67;1.67;;;7.10;99.90;;;;;;5052840;28;20444;-80
2023/12/20 01:11:37;;;;;;;1.80;1.70;;;7.00;99.90;;;;;;5053058;28;20975;-80
2023/12/20 01:14:11;;;;;;;1.50;1.40;;;7.00;99.90;;;;;;5052985;28;20789;-82
2023/12/20 01:17:18;;;;;;;1.80;1.70;;;6.90;99.90;;;;;;5051731;28;20456;-80
2023/12/20 02:26:19;;;;;;;1.50;1.50;;;6.60;99.90;;;;;;5065252;28;20474;-80
2023/12/20 02:29:24;;;;;;;1.70;1.70;;;6.60;99.90;;;;;;5065433;28;20512;-82
2023/12/20 03:47:58;;;;;;;;;;;;;;;;;;;;;
2023/12/20 05:15:16;;;;;;;0.60;0.60;;;6.20;99.90;;;;;;4897574;28;20444;-84
2023/12/20 05:18:09;;;;;;;0.70;0.70;;;6.20;99.90;;;;;;4984104;28;20449;-82
2023/12/20 05:21:15;;;;;;;;;;;;;;;;;;;;;
2023/12/20 05:24:13;;;;;;;0.83;0.70;;;6.20;99.90;;;;;;5004627;28;20507;-83
2023/12/20 05:27:01;;;;;;;0.80;0.80;;;6.20;99.90;;;;;;5012036;28;20471;-83
2023/12/20 05:29:57;;;;;;;;;;;;;;;;;;;;;
2023/12/20 05:33:04;;;;;;;;;;;;;;;;;;;;;
2023/12/20 05:35:36;;;;;;;1.23;0.90;;;6.20;99.90;;;;;;5047166;28;20806;-84
2023/12/20 05:38:38;;;;;;;0.67;0.67;;;6.20;99.90;;;;;;5045193;28;20924;-84
2023/12/20 05:41:34;;;;;;;0.60;0.60;;;6.40;99.90;;;;;;5044146;28;20471;-82
2023/12/20 05:44:36;;;;;;;0.80;0.80;;;6.20;99.90;;;;;;5046845;28;20501;-83
2023/12/20 06:36:56;;;;;;;1.00;1.00;;;6.20;99.90;;;;;;4843008;29;20445;-83
2023/12/20 06:49:33;;;;;;;1.30;1.30;;;6.20;99.90;;;;;;5035133;28;20955;-84
2023/12/20 06:52:26;;;;;;;1.50;1.40;;;6.30;99.90;;;;;;5033442;28;21015;-82
2023/12/20 06:55:10;;;;;;;1.60;1.50;;;6.30;99.90;;;;;;5021851;28;20621;-81
2023/12/20 07:00:35;;;;;;;1.10;1.10;;;6.30;99.90;;;;;;5047377;28;20967;-83
2023/12/20 07:03:31;;;;;;;1.00;1.00;;;6.40;99.90;;;;;;5050268;28;20478;-81
2023/12/20 07:06:27;;;;;;;1.20;1.10;;;6.40;99.90;;;;;;5049513;28;20768;-85
2023/12/20 07:12:00;;;;;;;1.10;1.10;;;6.50;99.90;;;;;;5043434;28;20472;-83
2023/12/20 07:14:41;;;;;;;1.57;1.13;;;6.50;99.90;;;;;;5047319;28;20462;-82
2023/12/20 07:17:19;;;;;;;1.50;1.50;;;6.50;99.90;;;;;;5046421;28;20530;-82
2023/12/20 07:20:09;;;;;;;1.47;1.47;;;6.40;99.90;;;;;;5046823;28;20458;-82
2023/12/20 07:23:01;;;;;;;2.87;2.67;;;6.40;99.90;;;;;;5044348;28;20513;-83
2023/12/20 07:25:38;;;;;;;2.10;2.00;;;6.40;99.90;;;;;;5048235;28;20473;-82
2023/12/20 07:28:47;;;;;;;2.63;2.43;;;6.40;99.90;;;;;;5049513;28;20876;-83
2023/12/20 07:31:35;;;;;;;2.83;2.63;;;6.40;99.90;;;;;;5048957;28;20538;-82
2023/12/20 07:34:13;;;;;;;2.70;2.50;;;6.40;99.90;;;;;;5044607;28;20513;-83
2023/12/20 07:37:18;;;;;;;2.70;2.60;;;6.40;99.90;;;;;;5050602;28;20534;-83
2023/12/20 07:40:05;;;;;;;;;;;;;;;;;;;;;
2023/12/20 07:42:40;;;;;;;3.07;2.87;;;6.40;99.90;;;;;;5049693;28;20434;-83
2023/12/20 07:45:38;;;;;;;2.43;2.33;;;6.40;99.90;;;;;;5050583;28;20421;-81
2023/12/20 07:48:48;;;;;;;;;;;;;;;;;;;;;
2023/12/20 07:51:33;;;;;;;3.20;3.00;;;6.30;99.90;;;;;;5051763;28;20456;-81
2023/12/20 07:54:20;;;;;;;3.00;2.80;;;6.30;99.90;;;;;;5047299;28;20427;-83
2023/12/20 07:57:11;;;;;;;3.43;3.23;;;6.30;99.90;;;;;;5035577;28;20459;-82
2023/12/20 07:59:47;;;;;;;4.57;4.20;;;6.00;99.90;;;;;;5048900;28;20443;-83
2023/12/20 08:02:29;;;;;;;3.07;2.87;;;6.30;99.90;;;;;;5051979;28;20850;-81
2023/12/20 08:05:46;;;;;;;3.67;3.47;;;6.20;99.90;;;;;;5052143;28;20475;-81
2023/12/20 08:08:41;;;;;;;3.40;3.20;;;6.20;99.90;;;;;;5045453;28;20458;-83
2023/12/20 08:17:54;;;;;;;3.30;3.13;;;6.10;99.90;;;;;;5036297;28;20439;-83
2023/12/20 08:20:33;;;;;;;3.47;3.27;;;6.10;99.90;;;;;;5051482;28;20462;-80
2023/12/20 08:23:06;;;;;;;3.50;3.30;;;6.10;99.90;;;;;;5050175;28;20940;-85
2023/12/20 08:25:55;;;;;;;3.70;3.40;;;6.00;99.90;;;;;;5052269;28;20438;-84
2023/12/20 08:28:31;;;;;;;3.70;3.40;;;6.00;99.90;;;;;;5053746;28;20446;-83
2023/12/20 08:31:30;;;;;;;3.43;3.13;;;6.10;99.90;;;;;;5048935;28;20476;-83
2023/12/20 08:34:06;;;;;;;3.57;3.23;;;6.10;99.90;;;;;;5039550;28;20446;-81
2023/12/20 08:36:55;;;;;;;3.93;3.63;;;6.10;99.90;;;;;;5048887;28;20468;-86
2023/12/20 08:39:34;;;;;;;3.63;3.33;;;6.10;99.90;;;;;;5047416;28;20442;-83
2023/12/20 08:42:13;;;;;;;3.90;3.47;;;6.10;99.90;;;;;;5035017;28;20438;-83
2023/12/20 08:45:13;;;;;;;3.80;3.60;;;6.10;99.90;;;;;;5046316;28;20458;-85
2023/12/20 08:51:10;;;;;;;3.43;3.23;;;6.10;99.90;;;;;;5039261;28;20470;-84
2023/12/20 08:53:54;;;;;;;3.20;3.00;;;6.10;99.90;;;;;;5043969;28;20533;-82
2023/12/20 08:59:27;;;;;;;3.70;3.40;;;6.30;99.90;;;;;;5009008;28;20450;-82
2023/12/20 09:02:00;;;;;;;3.43;3.20;;;6.40;99.90;;;;;;5043018;28;20469;-84
2023/12/20 09:04:29;;;;;;;3.60;3.10;;;6.50;99.90;;;;;;5037015;28;20467;-83
2023/12/20 09:06:55;;;;;;;3.23;3.03;;;6.50;99.90;;;;;;5035570;28;20866;-81
2023/12/20 09:09:22;;;;;;;3.10;2.90;;;6.70;99.90;;;;;;5036116;28;20431;-82
2023/12/20 09:11:51;;;;;;;5.03;3.90;;;6.80;99.90;;;;;;5035380;28;20455;-81
2023/12/20 09:14:17;;;;;;;3.53;3.33;;;6.90;99.90;;;;;;5035408;28;20438;-81
2023/12/20 09:16:44;;;;;;;3.20;3.00;;;7.00;99.90;;;;;;5035092;28;20501;-83
2023/12/20 09:19:11;;;;;;;4.20;3.80;;;7.10;99.90;;;;;;5035550;28;20793;-82
2023/12/20 09:21:39;;;;;;;3.90;3.53;;;7.20;99.90;;;;;;5035754;28;20470;-82
2023/12/20 09:24:06;;;;;;;3.13;2.87;;;7.40;99.90;;;;;;5038176;28;20533;-82
2023/12/20 09:26:32;;;;;;;3.70;3.10;;;7.40;99.90;;;;;;5039195;28;20767;-82
2023/12/20 09:28:59;;;;;;;2.83;2.73;;;7.40;99.90;;;;;;5040193;28;20452;-84
2023/12/20 09:31:26;;;;;;;3.17;2.97;;;7.30;99.90;;;;;;5038811;28;20538;-82
2023/12/20 09:33:53;;;;;;;4.30;3.40;;;7.50;99.90;;;;;;5038140;28;20535;-83
2023/12/20 09:36:20;;;;;;;2.90;2.50;;;7.60;99.90;;;;;;5037823;28;20438;-81
2023/12/20 09:38:48;;;;;;;4.17;2.60;;;7.80;99.90;;;;;;5038318;28;20451;-81
2023/12/20 09:41:15;;;;;;;2.17;2.00;;;7.60;99.90;;;;;;5038536;28;20471;-83
2023/12/20 09:43:43;;;;;;;5.10;2.40;;;7.70;99.90;;;;;;5038113;28;20482;-83
2023/12/20 09:46:16;;;;;;;2.40;2.20;;;7.70;99.90;;;;;;5038621;28;20442;-82
2023/12/20 09:48:43;;;;;;;3.63;2.23;;;7.90;99.90;;;;;;5038005;28;20430;-82
2023/12/20 09:51:10;;;;;;;3.07;1.80;;;7.80;99.90;;;;;;5038202;28;20459;-81
2023/12/20 09:53:39;;;;;;;2.20;2.00;;;7.90;99.90;;;;;;5038745;28;20491;-82
2023/12/20 09:56:07;;;;;;;2.77;2.13;;;7.90;99.90;;;;;;5039454;28;20448;-82
2023/12/20 09:58:37;;;;;;;2.00;1.80;;;8.00;99.90;;;;;;5019802;28;20543;-83
2023/12/20 10:01:04;;;;;;;2.03;1.70;;;8.10;99.90;;;;;;5018976;28;21000;-82
2023/12/20 10:03:32;;;;;;;4.13;2.13;;;8.20;99.90;;;;;;5018704;28;20444;-85
2023/12/20 10:06:00;;;;;;;2.60;2.00;;;8.20;99.90;;;;;;5051003;28;20455;-83
2023/12/20 10:08:27;;;;;;;4.57;2.00;;;8.30;99.90;;;;;;5059778;28;20447;-84
2023/12/20 10:10:54;;;;;;;3.97;1.97;;;8.40;99.90;;;;;;5066373;28;20467;-85
2023/12/20 10:13:22;;;;;;;3.97;1.93;;;8.50;99.90;;;;;;5078606;28;20564;-85
2023/12/20 10:15:51;;;;;;;2.57;2.30;;;8.50;99.90;;;;;;5078649;28;20430;-87
2023/12/20 10:18:18;;;;;;;5.67;2.00;;;8.60;99.90;;;;;;5078258;28;20420;-84
2023/12/20 10:20:45;;;;;;;3.03;1.93;;;8.60;99.90;;;;;;5078677;28;20456;-86
2023/12/20 10:23:13;;;;;;;2.70;2.00;;;8.50;99.90;;;;;;5078095;28;20437;-86
2023/12/20 10:25:41;;;;;;;2.60;1.80;;;8.20;99.90;;;;;;5078078;28;20485;-85
2023/12/20 10:28:12;;;;;;;3.03;1.77;;;8.10;99.90;;;;;;5078087;28;20444;-84
2023/12/20 10:30:41;;;;;;;2.40;2.00;;;8.00;99.90;;;;;;5077943;28;20455;-85
2023/12/20 10:33:08;;;;;;;1.70;1.60;;;7.90;99.90;;;;;;5068911;28;20485;-85
2023/12/20 10:35:35;;;;;;;5.33;2.40;;;7.70;99.90;;;;;;5063519;28;20433;-83
2023/12/20 10:38:05;;;;;;;1.73;1.60;;;7.50;99.90;;;;;;5065412;28;20438;-85
2023/12/20 10:40:32;;;;;;;4.37;2.60;;;7.50;99.90;;;;;;5064588;28;20454;-83
2023/12/20 10:43:01;;;;;;;2.57;2.33;;;7.40;99.90;;;;;;5063907;28;20517;-82
2023/12/20 10:45:27;;;;;;;3.97;2.40;;;7.40;99.90;;;;;;5062216;28;20466;-84
2023/12/20 10:47:59;;;;;;;3.93;2.43;;;7.30;99.90;;;;;;5062641;28;20447;-83
2023/12/20 10:50:27;;;;;;;4.87;2.00;;;7.20;99.90;;;;;;5062781;28;20486;-84
2023/12/20 10:52:55;;;;;;;6.17;2.20;;;7.20;99.90;;;;;;5062424;28;20450;-84
2023/12/20 10:55:22;;;;;;;4.80;2.47;;;7.20;99.90;;;;;;5058862;28;20551;-84
2023/12/20 10:57:51;;;;;;;3.80;2.10;;;7.10;99.90;;;;;;5058853;28;20446;-83
2023/12/20 11:00:19;;;;;;;2.40;2.20;;;7.00;99.90;;;;;;5058810;28;20983;-83
2023/12/20 11:02:49;;;;;;;2.53;2.10;;;7.00;99.90;;;;;;5058254;28;20438;-85
2023/12/20 11:05:29;;;;;;;3.30;2.40;;;6.90;99.90;;;;;;5057464;28;20470;-82
2023/12/20 11:08:03;;;;;;;3.07;1.93;;;6.70;99.90;;;;;;5058828;28;20441;-83
2023/12/20 11:10:32;;;;;;;2.70;2.03;;;6.80;99.90;;;;;;5058494;28;20486;-83
2023/12/20 11:13:09;;;;;;;4.63;2.07;;;6.80;99.90;;;;;;5059217;28;20522;-84
2023/12/20 11:15:36;;;;;;;4.90;2.47;;;6.80;99.90;;;;;;5058768;28;20426;-84
2023/12/20 11:18:06;;;;;;;1.87;1.77;;;6.90;99.90;;;;;;5058527;28;20437;-82
2023/12/20 11:20:39;;;;;;;5.43;2.37;;;6.90;99.90;;;;;;5059096;28;20476;-83
2023/12/20 11:23:07;;;;;;;2.00;1.87;;;6.90;99.90;;;;;;5060048;28;20474;-82
2023/12/20 11:25:48;;;;;;;3.60;2.30;;;6.90;99.90;;;;;;5061140;28;20485;-84
2023/12/20 11:28:15;;;;;;;4.00;2.20;;;6.90;99.90;;;;;;5060503;28;20481;-85
2023/12/20 11:30:43;;;;;;;5.50;2.30;;;6.80;99.90;;;;;;5061479;28;20465;-83
2023/12/20 11:33:10;;;;;;;2.93;2.60;;;6.70;99.90;;;;;;5060604;28;20450;-82
2023/12/20 11:35:39;;;;;;;5.70;2.10;;;6.70;99.90;;;;;;5059482;28;20435;-83
2023/12/20 11:38:08;;;;;;;9.33;3.00;;;7.10;99.90;;;;;;5058977;28;20484;-83
2023/12/20 11:40:36;;;;;;;3.73;2.27;;;6.80;99.90;;;;;;5061920;28;20986;-83
2023/12/20 11:43:04;;;;;;;3.50;2.37;;;6.80;99.90;;;;;;5065847;28;20499;-82
2023/12/20 11:45:31;;;;;;;2.30;2.10;;;6.80;99.90;;;;;;5063266;28;20503;-83
2023/12/20 11:47:58;;;;;;;5.80;2.20;;;6.70;99.90;;;;;;5057794;28;20935;-81
2023/12/20 11:50:26;;;;;;;4.27;2.03;;;6.70;99.90;;;;;;5055242;28;20470;-82
2023/12/20 11:52:55;;;;;;;2.90;2.13;;;6.70;99.90;;;;;;5058581;28;20482;-84
2023/12/20 11:55:22;;;;;;;2.37;2.10;;;6.70;99.90;;;;;;5070268;28;20462;-81
2023/12/20 11:57:49;;;;;;;6.50;2.40;;;6.70;99.90;;;;;;5055480;28;20446;-82
2023/12/20 12:00:16;;;;;;;2.37;1.70;;;6.70;99.90;;;;;;5056908;28;20496;-82
2023/12/20 12:02:43;;;;;;;2.20;2.00;;;6.60;99.90;;;;;;5058618;28;20452;-80
2023/12/20 12:05:10;;;;;;;4.03;2.37;;;6.60;99.90;;;;;;5051055;28;20991;-81
2023/12/20 12:07:37;;;;;;;5.33;2.20;;;6.60;99.90;;;;;;5037682;28;20492;-82
2023/12/20 12:10:06;;;;;;;2.97;2.20;;;6.70;99.90;;;;;;5038533;28;20454;-81
2023/12/20 12:12:33;;;;;;;4.40;2.37;;;6.70;99.90;;;;;;5037990;28;20450;-80
2023/12/20 12:15:00;;;;;;;4.20;2.67;;;6.70;99.90;;;;;;5038743;28;20439;-80
2023/12/20 12:17:27;;;;;;;4.27;2.50;;;6.70;99.90;;;;;;5038672;28;20443;-81
2023/12/20 12:20:04;;;;;;;6.30;3.03;;;6.80;99.90;;;;;;5038308;28;20466;-80
2023/12/20 12:22:30;;;;;;;4.80;2.50;;;6.80;99.90;;;;;;5038582;28;20435;-81
2023/12/20 12:25:00;;;;;;;3.80;2.50;;;6.80;99.90;;;;;;5036579;28;20513;-81
2023/12/20 12:27:30;;;;;;;7.23;2.90;;;6.90;99.90;;;;;;5038620;28;20443;-83
2023/12/20 12:30:07;;;;;;;4.00;2.30;;;7.00;99.90;;;;;;5039477;28;20471;-81
2023/12/20 12:32:36;;;;;;;2.23;2.07;;;7.00;99.90;;;;;;5039400;28;20430;-81
2023/12/20 12:35:06;;;;;;;3.07;2.57;;;7.00;99.90;;;;;;5039133;28;20459;-83
2023/12/20 12:37:35;;;;;;;3.20;2.20;;;7.10;99.90;;;;;;5037226;28;20459;-81
2023/12/20 12:40:02;;;;;;;6.13;3.40;;;7.10;99.90;;;;;;5035360;28;20538;-83
2023/12/20 12:42:30;;;;;;;3.33;2.50;;;7.10;99.90;;;;;;5035794;28;20457;-80
2023/12/20 12:44:57;;;;;;;7.60;2.90;;;7.10;99.90;;;;;;5035705;28;20506;-81
2023/12/20 12:47:24;;;;;;;3.20;2.10;;;7.00;99.90;;;;;;5035654;28;20459;-81
2023/12/20 12:49:52;;;;;;;5.07;2.47;;;7.00;99.90;;;;;;5035698;28;20465;-80
2023/12/20 12:52:18;;;;;;;4.23;2.20;;;7.00;99.90;;;;;;5035519;28;20981;-83
2023/12/20 12:54:46;;;;;;;6.37;2.73;;;7.00;99.90;;;;;;5045139;28;20450;-83
2023/12/20 12:57:14;;;;;;;3.47;2.23;;;7.30;99.90;;;;;;5054675;28;20196;-83
2023/12/20 12:59:43;;;;;;;3.57;2.20;;;7.30;99.90;;;;;;5038877;28;20461;-82
2023/12/20 13:02:10;;;;;;;5.57;2.20;;;7.00;99.90;;;;;;5035713;28;20448;-82
2023/12/20 13:04:39;;;;;;;4.23;2.17;;;7.00;99.90;;;;;;5035469;28;20587;-82
2023/12/20 13:07:06;;;;;;;8.73;2.40;;;7.00;99.90;;;;;;5035594;28;20468;-81
2023/12/20 13:09:32;;;;;;;4.80;2.33;;;7.00;99.90;;;;;;5034754;28;20493;-80
2023/12/20 13:12:02;;;;;;;4.83;2.00;;;7.00;99.90;;;;;;5034511;28;20454;-80
2023/12/20 13:14:28;;;;;;;5.80;2.37;;;6.90;99.90;;;;;;5034556;28;20948;-81
2023/12/20 13:16:56;;;;;;;6.13;2.50;;;6.90;99.90;;;;;;5034590;28;20443;-82
2023/12/20 13:19:23;;;;;;;3.90;1.90;;;6.90;99.90;;;;;;5034437;28;20449;-82
2023/12/20 13:21:50;;;;;;;1.83;1.60;;;6.90;99.90;;;;;;5034761;28;20467;-82
2023/12/20 13:24:17;;;;;;;3.83;1.90;;;6.90;99.90;;;;;;5034479;28;20476;-81
2023/12/20 13:26:43;;;;;;;3.63;2.10;;;6.90;99.90;;;;;;5033558;28;20474;-83
2023/12/20 13:29:10;;;;;;;4.67;1.97;;;6.90;99.90;;;;;;5034446;28;20748;-81
2023/12/20 13:31:37;;;;;;;4.90;2.30;;;7.00;99.90;;;;;;5033515;28;20507;-83
2023/12/20 13:34:05;;;;;;;2.60;2.10;;;7.00;99.90;;;;;;5033217;28;20818;-82
2023/12/20 13:36:32;;;;;;;4.07;2.00;;;7.10;99.90;;;;;;5033773;28;20447;-81
2023/12/20 13:38:59;;;;;;;2.83;2.07;;;7.10;99.90;;;;;;5033426;28;20451;-81
2023/12/20 13:41:25;;;;;;;4.47;2.00;;;7.20;99.90;;;;;;5033964;28;20466;-82
2023/12/20 13:43:52;;;;;;;2.80;2.17;;;7.30;99.90;;;;;;5034155;28;20446;-80
2023/12/20 13:46:19;;;;;;;4.27;2.00;;;7.20;99.90;;;;;;5033981;28;21000;-80
2023/12/20 13:48:45;;;;;;;3.27;1.87;;;7.20;99.90;;;;;;5034021;28;20446;-81
2023/12/20 13:51:14;;;;;;;4.33;1.87;;;7.10;99.90;;;;;;5034393;28;20683;-82
2023/12/20 13:53:40;;;;;;;2.13;1.90;;;7.40;99.90;;;;;;5034070;28;20447;-81
2023/12/20 13:56:08;;;;;;;3.63;1.83;;;7.10;99.90;;;;;;5032940;28;20454;-81
2023/12/20 13:58:34;;;;;;;3.90;1.90;;;7.00;99.90;;;;;;5033664;28;20472;-82
2023/12/20 14:01:01;;;;;;;2.63;1.93;;;7.00;99.90;;;;;;5032579;28;20994;-81
2023/12/20 14:03:28;;;;;;;4.97;1.77;;;7.00;99.90;;;;;;5032815;28;20435;-82
2023/12/20 14:05:54;;;;;;;2.10;1.77;;;6.90;99.90;;;;;;5049050;28;20474;-80
2023/12/20 14:08:23;;;;;;;4.00;2.10;;;6.90;99.90;;;;;;5053538;28;20863;-82
2023/12/20 14:10:51;;;;;;;2.50;2.00;;;6.90;99.90;;;;;;5056513;28;20481;-83
2023/12/20 14:13:17;;;;;;;3.30;2.20;;;6.90;99.90;;;;;;5057409;28;20469;-81
2023/12/20 14:15:44;;;;;;;5.57;2.03;;;6.90;99.90;;;;;;5058299;28;20429;-82
2023/12/20 14:18:12;;;;;;;3.53;2.40;;;6.90;99.90;;;;;;5058349;28;20448;-82
2023/12/20 14:20:39;;;;;;;2.13;2.03;;;6.90;99.90;;;;;;5058108;28;20465;-82
2023/12/20 14:23:06;;;;;;;6.13;2.40;;;6.90;99.90;;;;;;5056898;28;20540;-82
2023/12/20 14:25:34;;;;;;;4.07;2.00;;;6.80;99.90;;;;;;5056030;28;20481;-81
2023/12/20 14:28:03;;;;;;;3.70;2.30;;;6.80;99.90;;;;;;5056303;28;20449;-81
2023/12/20 14:30:29;;;;;;;3.50;2.10;;;6.80;99.90;;;;;;5055831;28;20852;-81
2023/12/20 14:32:56;;;;;;;2.07;1.87;;;6.70;99.90;;;;;;5055718;28;20442;-80
2023/12/20 14:35:23;;;;;;;3.17;1.90;;;6.70;99.90;;;;;;5056346;28;21010;-80
2023/12/20 14:37:50;;;;;;;3.43;2.07;;;6.70;99.90;;;;;;5056219;28;20511;-82
2023/12/20 14:40:17;;;;;;;2.17;2.03;;;6.70;99.90;;;;;;5056090;28;20493;-84
2023/12/20 14:42:46;;;;;;;2.40;2.20;;;6.70;99.90;;;;;;5055394;28;20446;-80
2023/12/20 14:45:13;;;;;;;3.73;2.27;;;6.70;99.90;;;;;;5055518;28;20619;-82
2023/12/20 14:47:40;;;;;;;3.90;2.03;;;6.70;99.90;;;;;;5055523;28;20524;-80
2023/12/20 14:50:08;;;;;;;3.07;2.30;;;6.60;99.90;;;;;;5056293;28;20470;-81
2023/12/20 14:52:34;;;;;;;2.30;2.00;;;6.50;99.90;;;;;;5055949;28;20949;-82
2023/12/20 14:55:02;;;;;;;2.77;2.20;;;6.40;99.90;;;;;;5055505;28;20499;-82
2023/12/20 14:57:29;;;;;;;3.70;2.60;;;6.50;99.90;;;;;;5055522;28;20773;-81
2023/12/20 14:59:57;;;;;;;2.80;2.47;;;6.40;99.90;;;;;;5055459;28;20467;-82
2023/12/20 15:02:24;;;;;;;2.83;2.50;;;6.50;99.90;;;;;;5054668;28;20966;-80
2023/12/20 15:04:51;;;;;;;3.33;2.27;;;6.50;99.90;;;;;;5054865;28;20865;-81
2023/12/20 15:07:18;;;;;;;3.03;2.33;;;6.30;99.90;;;;;;5055112;28;20800;-80
2023/12/20 15:09:46;;;;;;;4.90;2.10;;;6.40;99.90;;;;;;5054843;28;20492;-81
2023/12/20 15:12:12;;;;;;;4.23;2.60;;;6.40;99.90;;;;;;5055168;28;20533;-81
2023/12/20 15:14:39;;;;;;;4.50;2.70;;;6.40;99.90;;;;;;5055380;28;20508;-81
2023/12/20 15:17:07;;;;;;;3.43;2.07;;;6.30;99.90;;;;;;5055597;28;20437;-81
2023/12/20 15:19:34;;;;;;;4.20;2.20;;;6.30;99.90;;;;;;5054902;28;20445;-81
2023/12/20 15:22:01;;;;;;;2.90;2.20;;;6.30;99.90;;;;;;5054347;28;20441;-81
2023/12/20 15:24:36;;;;;;;4.10;1.90;;;6.30;99.90;;;;;;5055122;28;20516;-80
2023/12/20 15:27:03;;;;;;;4.43;2.20;;;6.30;99.90;;;;;;5055267;28;20978;-81
2023/12/20 15:29:30;;;;;;;2.83;2.43;;;6.30;99.90;;;;;;5055300;28;20449;-81
2023/12/20 15:31:57;;;;;;;2.60;2.13;;;6.30;99.90;;;;;;5056336;28;20456;-81
2023/12/20 15:34:25;;;;;;;3.70;1.80;;;6.30;99.90;;;;;;5055241;28;20434;-80
2023/12/20 15:36:52;;;;;;;4.73;2.17;;;6.30;99.90;;;;;;5055380;28;20445;-82
2023/12/20 15:39:18;;;;;;;2.80;2.60;;;6.20;99.90;;;;;;5054879;28;20441;-81
2023/12/20 15:41:45;;;;;;;3.50;3.30;;;6.30;99.90;;;;;;5054933;28;20533;-81
2023/12/20 15:44:12;;;;;;;4.87;2.43;;;6.30;99.90;;;;;;5055496;28;20495;-82
2023/12/20 15:46:39;;;;;;;2.00;1.90;;;6.30;99.90;;;;;;5054860;28;21350;-83
2023/12/20 15:49:06;;;;;;;5.27;1.90;;;6.20;99.90;;;;;;5055215;28;21113;-79
2023/12/20 15:51:35;;;;;;;4.30;2.50;;;6.20;99.90;;;;;;5055535;28;20460;-82
2023/12/20 15:54:05;;;;;;;3.33;2.50;;;6.20;99.90;;;;;;5055000;28;20567;-81
2023/12/20 15:56:32;;;;;;;3.30;2.20;;;6.20;99.90;;;;;;5055064;28;20445;-80
2023/12/20 15:58:59;;;;;;;3.73;2.73;;;6.20;99.90;;;;;;5055708;28;20456;-81
2023/12/20 16:01:26;;;;;;;4.50;1.83;;;6.20;99.90;;;;;;5054735;28;21175;-80
2023/12/20 16:03:53;;;;;;;3.23;2.10;;;6.10;99.90;;;;;;5054455;28;20897;-78
2023/12/20 16:06:21;;;;;;;2.70;2.37;;;6.10;99.90;;;;;;5036180;28;20485;-80
2023/12/20 16:08:49;;;;;;;4.23;2.63;;;6.20;99.90;;;;;;5035498;28;20446;-82
2023/12/20 16:11:16;;;;;;;3.70;2.30;;;6.20;99.90;;;;;;5034519;28;20469;-82
2023/12/20 16:13:43;;;;;;;4.60;2.90;;;6.20;99.90;;;;;;5035180;28;20450;-82
2023/12/20 16:16:10;;;;;;;4.03;2.60;;;6.40;99.90;;;;;;5035636;28;20445;-81
2023/12/20 16:18:37;;;;;;;4.13;3.07;;;6.10;99.90;;;;;;5034926;28;20540;-80
2023/12/20 16:21:04;;;;;;;3.80;2.83;;;6.10;99.90;;;;;;5034371;28;20454;-81
2023/12/20 16:23:33;;;;;;;4.33;2.60;;;6.10;99.90;;;;;;5034981;28;20936;-82
2023/12/20 16:26:01;;;;;;;3.17;2.60;;;6.10;99.90;;;;;;5035742;28;20565;-82
2023/12/20 16:28:28;;;;;;;2.60;2.20;;;6.10;99.90;;;;;;5035100;28;20446;-81
2023/12/20 16:30:56;;;;;;;2.57;2.30;;;6.10;99.90;;;;;;5035416;28;20513;-81
2023/12/20 16:33:23;;;;;;;3.67;3.37;;;6.10;99.90;;;;;;5037383;28;20458;-81
2023/12/20 16:35:49;;;;;;;4.83;3.17;;;6.10;99.90;;;;;;5036955;28;20438;-81
2023/12/20 16:38:16;;;;;;;2.83;2.63;;;6.00;99.90;;;;;;5039334;28;20443;-80
2023/12/20 16:40:44;;;;;;;4.63;3.20;;;6.00;99.90;;;;;;5038677;28;20980;-81
2023/12/20 16:43:12;;;;;;;2.57;2.30;;;6.00;99.90;;;;;;5040100;28;20839;-80
2023/12/20 16:45:39;;;;;;;5.60;2.73;;;6.00;99.90;;;;;;5036258;28;20453;-82
2023/12/20 16:48:06;;;;;;;3.40;2.90;;;6.00;99.90;;;;;;5034390;28;20447;-81
2023/12/20 16:50:32;;;;;;;3.23;3.00;;;6.00;99.90;;;;;;5035508;28;20459;-80
2023/12/20 16:52:59;;;;;;;4.47;2.60;;;6.00;99.90;;;;;;5035218;28;20442;-80
2023/12/20 16:55:25;;;;;;;2.77;2.40;;;6.00;99.90;;;;;;5035031;28;20212;-82
2023/12/20 16:57:52;;;;;;;2.83;2.60;;;6.00;99.90;;;;;;5040144;28;20426;-83
2023/12/20 17:00:22;;;;;;;4.60;3.07;;;6.00;99.90;;;;;;5054119;28;20446;-83
2023/12/20 17:02:50;;;;;;;5.13;3.27;;;5.90;99.90;;;;;;5054215;28;20447;-84
2023/12/20 17:05:16;;;;;;;3.90;3.50;;;5.90;99.90;;;;;;5063927;28;20502;-81
2023/12/20 17:08:03;;;;;;;3.20;3.00;;;5.90;99.90;;;;;;5062792;28;20477;-83
2023/12/20 17:10:59;;;;;;;4.57;3.30;;;5.90;99.90;;;;;;5061170;28;20596;-83
2023/12/20 17:13:42;;;;;;;2.90;2.70;;;5.90;99.90;;;;;;5064786;28;20458;-83
2023/12/20 17:16:49;;;;;;;3.73;3.07;;;5.90;99.90;;;;;;5052381;28;21006;-83
2023/12/20 17:19:41;;;;;;;3.80;3.37;;;6.10;99.90;;;;;;5067683;28;20445;-83
2023/12/20 17:22:24;;;;;;;2.97;2.70;;;5.90;99.90;;;;;;5069644;28;20445;-82
2023/12/20 17:25:16;;;;;;;6.23;3.47;;;5.80;99.90;;;;;;5069262;28;20450;-83
2023/12/20 17:27:57;;;;;;;5.20;3.03;;;5.80;99.90;;;;;;5068574;28;20478;-83
2023/12/20 17:30:36;;;;;;;4.50;2.63;;;5.80;99.90;;;;;;5066877;28;20527;-82
2023/12/20 17:33:23;;;;;;;3.07;2.53;;;5.50;99.90;;;;;;5066229;28;20429;-83
2023/12/20 17:38:57;;;;;;;3.03;2.60;;;5.70;99.90;;;;;;5067754;28;20442;-82
2023/12/20 17:41:33;;;;;;;2.43;2.20;;;5.70;99.90;;;;;;5071859;28;20456;-80
2023/12/20 17:44:16;;;;;;;2.90;2.70;;;5.40;99.90;;;;;;5073021;28;20460;-82
2023/12/20 17:46:50;;;;;;;3.00;2.80;;;5.70;99.90;;;;;;5073843;28;20492;-82
2023/12/20 17:49:31;;;;;;;3.87;2.63;;;5.60;99.90;;;;;;5072661;28;20449;-83
2023/12/20 17:52:01;;;;;;;3.10;2.80;;;5.30;99.90;;;;;;5066231;28;20472;-81
2023/12/20 17:54:36;;;;;;;6.00;3.17;;;5.60;99.90;;;;;;5065105;28;20481;-81
2023/12/20 17:57:25;;;;;;;4.27;2.40;;;5.60;99.90;;;;;;5067125;28;20460;-81
2023/12/20 18:00:02;;;;;;;3.63;2.70;;;5.60;99.90;;;;;;5062506;28;20475;-82
2023/12/20 18:02:39;;;;;;;2.83;2.63;;;5.70;99.90;;;;;;5059933;28;20504;-81
2023/12/20 18:05:21;;;;;;;3.70;3.50;;;5.70;99.90;;;;;;5062632;28;20472;-84
2023/12/20 18:07:52;;;;;;;2.40;2.30;;;5.70;99.90;;;;;;5073493;28;20469;-81
2023/12/20 18:10:28;;;;;;;3.43;2.47;;;5.70;99.90;;;;;;5065188;28;20564;-82
2023/12/20 18:13:17;;;;;;;3.27;2.97;;;5.70;99.90;;;;;;5064219;28;20445;-82
2023/12/20 18:15:49;;;;;;;2.47;2.37;;;5.70;99.90;;;;;;5065576;28;20416;-83
2023/12/20 18:18:20;;;;;;;2.40;2.30;;;5.70;99.90;;;;;;5068040;28;20468;-82
2023/12/20 18:20:57;;;;;;;5.63;2.73;;;5.70;99.90;;;;;;5066782;28;20473;-80
2023/12/20 18:23:32;;;;;;;2.50;2.30;;;5.70;99.90;;;;;;5063947;28;20449;-80
2023/12/20 18:26:09;;;;;;;1.93;1.83;;;5.70;99.90;;;;;;5071519;28;20788;-83
2023/12/20 18:28:45;;;;;;;2.80;2.20;;;5.80;99.90;;;;;;5072294;28;20437;-82
2023/12/20 18:31:16;;;;;;;1.80;1.70;;;5.80;99.90;;;;;;5066087;28;20464;-81
2023/12/20 18:34:10;;;;;;;2.70;1.80;;;5.80;99.90;;;;;;5060832;28;20458;-81
2023/12/20 18:36:57;;;;;;;2.10;1.90;;;5.80;99.90;;;;;;5069434;28;20492;-84
2023/12/20 18:39:32;;;;;;;1.90;1.80;;;5.90;99.90;;;;;;5067045;28;20457;-81
2023/12/20 18:42:17;;;;;;;2.00;1.70;;;5.90;99.90;;;;;;5066943;28;20465;-83